Sainte-Adele, Canada
Current Conditions -  °F | °C
As of 8:47 AM on Monday 24 Nov 2014 (Local Time) from CYMX Reporting Station
Haze Haze  
Wind Chill: 39°   Ceiling: 700
Heat Index: 45°   Visibility: 6mi
Dew Point: 45°   Wind: 12mph
Humidity: 100%   Direction: 120°ESE
Pressure: 29.45"   Gusts: NA
Location:  45.95°N, 74.15°W
Report Text: CYMX 241347Z 12010KT 6SM BR BKN007 OVC040 07/07 A2945 RMK SF7SC1 PRESFR SLP976
Loading
Personal Weather Stations






























Interactive Weather Map New forecast layout! Learn more

10-Day Weather Forecast

Advertisements
Track Severe Weather on mobile